TimeEST,TemperatureF,Dew PointF,Humidity,Sea Level PressureIn,VisibilityMPH,Wind Direction,Wind SpeedMPH,Gust SpeedMPH,PrecipitationIn,Events,Conditions,WindDirDegrees,DateUTC
12:15 AM,30.2,28.4,93,29.81,1.8,North,16.1,-,N/A,Snow,Light Snow,350,2013-03-06 05:15:00
12:35 AM,30.2,28.4,93,29.82,2.0,North,15.0,21.9,N/A,Snow,Light Snow,350,2013-03-06 05:35:00
12:55 AM,30.2,28.4,93,29.83,2.0,NNW,15.0,-,N/A,Snow,Light Snow,340,2013-03-06 05:55:00
1:15 AM,28.4,28.4,100,29.84,2.5,North,16.1,23.0,N/A,Snow,Light Snow,350,2013-03-06 06:15:00
1:35 AM,28.4,26.6,93,29.86,3.0,North,15.0,23.0,N/A,Snow,Light Snow,360,2013-03-06 06:35:00
1:55 AM,28.4,26.6,93,29.87,3.0,North,17.3,24.2,N/A,Snow,Light Snow,360,2013-03-06 06:55:00
2:15 AM,28.4,26.6,93,29.88,4.0,North,18.4,-,N/A,Snow,Light Snow,350,2013-03-06 07:15:00
2:35 AM,28.4,26.6,93,29.88,7.0,North,17.3,-,N/A,,Overcast,350,2013-03-06 07:35:00
2:55 AM,28.4,26.6,93,29.89,7.0,North,16.1,23.0,N/A,,Overcast,350,2013-03-06 07:55:00
3:15 AM,28.4,26.6,93,29.89,10.0,North,17.3,23.0,N/A,,Overcast,350,2013-03-06 08:15:00
3:35 AM,28.4,24.8,86,29.91,10.0,North,16.1,-,N/A,,Overcast,350,2013-03-06 08:35:00
3:55 AM,28.4,24.8,86,29.91,10.0,NNW,17.3,20.7,N/A,,Overcast,340,2013-03-06 08:55:00
4:15 AM,28.4,24.8,86,29.92,10.0,NNW,17.3,20.7,N/A,,Overcast,340,2013-03-06 09:15:00
4:35 AM,28.4,24.8,86,29.93,10.0,NNW,16.1,-,N/A,,Overcast,340,2013-03-06 09:35:00
4:55 AM,28.4,24.8,86,29.95,10.0,NNW,16.1,21.9,N/A,,Overcast,340,2013-03-06 09:55:00
5:15 AM,28.4,24.8,86,29.97,10.0,NNW,13.8,20.7,N/A,,Overcast,340,2013-03-06 10:15:00
5:35 AM,28.4,24.8,86,29.98,10.0,NNW,13.8,-,N/A,,Overcast,340,2013-03-06 10:35:00
5:55 AM,28.4,24.8,86,30.00,10.0,North,16.1,-,N/A,,Overcast,350,2013-03-06 10:55:00
6:15 AM,28.4,24.8,86,30.01,10.0,NNW,16.1,-,N/A,,Overcast,340,2013-03-06 11:15:00
6:35 AM,28.4,23.0,80,30.02,10.0,NNW,16.1,21.9,N/A,,Overcast,340,2013-03-06 11:35:00
7:15 AM,28.4,24.8,86,30.06,10.0,NNW,12.7,24.2,N/A,,Overcast,340,2013-03-06 12:15:00
7:35 AM,28.4,24.8,86,30.06,10.0,NNW,12.7,-,N/A,,Overcast,340,2013-03-06 12:35:00
7:55 AM,28.4,26.6,93,30.07,10.0,North,13.8,-,N/A,,Overcast,350,2013-03-06 12:55:00
8:15 AM,30.2,26.6,86,30.09,10.0,NNW,11.5,-,N/A,,Overcast,340,2013-03-06 13:15:00
8:35 AM,30.2,26.6,86,30.10,10.0,North,12.7,-,N/A,,Overcast,360,2013-03-06 13:35:00
8:55 AM,30.2,26.6,86,30.11,10.0,North,13.8,-,N/A,,Overcast,360,2013-03-06 13:55:00
9:15 AM,30.2,26.6,86,30.12,10.0,North,11.5,23.0,N/A,,Overcast,350,2013-03-06 14:15:00
9:35 AM,30.2,26.6,86,30.12,10.0,North,12.7,-,N/A,,Overcast,350,2013-03-06 14:35:00
9:55 AM,32.0,26.6,80,30.13,10.0,North,12.7,-,N/A,,Overcast,350,2013-03-06 14:55:00
10:15 AM,32.0,26.6,80,30.14,10.0,North,5.8,19.6,N/A,,Overcast,360,2013-03-06 15:15:00
10:35 AM,32.0,26.6,80,30.14,10.0,North,3.5,-,N/A,,Overcast,360,2013-03-06 15:35:00
10:55 AM,32.0,26.6,80,30.15,10.0,North,12.7,-,N/A,,Overcast,360,2013-03-06 15:55:00
11:15 AM,32.0,26.6,80,30.16,10.0,North,9.2,-,N/A,,Overcast,350,2013-03-06 16:15:00
11:35 AM,32.0,26.6,80,30.16,10.0,North,11.5,17.3,N/A,,Overcast,350,2013-03-06 16:35:00
11:55 AM,32.0,26.6,80,30.17,10.0,NNW,12.7,-,N/A,,Overcast,340,2013-03-06 16:55:00
12:15 PM,32.0,26.6,80,30.17,10.0,NNW,9.2,16.1,N/A,,Overcast,330,2013-03-06 17:15:00
12:35 PM,32.0,26.6,80,30.18,10.0,NNW,5.8,-,N/A,,Overcast,330,2013-03-06 17:35:00
12:55 PM,32.0,28.4,87,30.18,10.0,NNW,10.4,16.1,N/A,,Overcast,340,2013-03-06 17:55:00
1:15 PM,33.8,28.4,81,30.17,10.0,NNW,8.1,-,N/A,,Overcast,330,2013-03-06 18:15:00
1:55 PM,33.8,28.4,81,30.16,10.0,NW,8.1,-,N/A,,Overcast,310,2013-03-06 18:55:00
2:15 PM,33.8,28.4,81,30.17,10.0,NW,6.9,-,N/A,,Overcast,310,2013-03-06 19:15:00
2:35 PM,32.0,30.2,93,30.17,10.0,NW,8.1,-,N/A,,Overcast,310,2013-03-06 19:35:00
2:55 PM,32.0,28.4,87,30.18,10.0,NW,9.2,-,N/A,,Overcast,310,2013-03-06 19:55:00
3:15 PM,32.0,28.4,87,30.18,10.0,NW,8.1,-,N/A,,Overcast,320,2013-03-06 20:15:00
3:35 PM,32.0,28.4,87,30.19,10.0,NW,5.8,-,N/A,,Overcast,310,2013-03-06 20:35:00
3:55 PM,32.0,28.4,87,30.19,10.0,NW,6.9,-,N/A,,Overcast,310,2013-03-06 20:55:00
4:15 PM,32.0,28.4,87,30.20,10.0,NW,6.9,-,N/A,,Overcast,310,2013-03-06 21:15:00
4:35 PM,32.0,28.4,87,30.20,10.0,WNW,6.9,-,N/A,,Overcast,300,2013-03-06 21:35:00
4:55 PM,32.0,28.4,87,30.21,10.0,NW,5.8,-,N/A,,Overcast,310,2013-03-06 21:55:00
5:15 PM,32.0,28.4,87,30.21,10.0,WNW,8.1,-,N/A,,Overcast,300,2013-03-06 22:15:00
5:35 PM,32.0,28.4,87,30.22,10.0,WNW,6.9,-,N/A,,Overcast,300,2013-03-06 22:35:00
5:55 PM,32.0,30.2,93,30.23,5.0,WNW,5.8,-,N/A,,Overcast,300,2013-03-06 22:55:00
6:15 PM,32.0,30.2,93,30.24,2.0,West,6.9,-,N/A,Snow,Light Snow,280,2013-03-06 23:15:00
6:35 PM,32.0,30.2,93,30.24,2.5,West,6.9,-,N/A,Snow,Light Snow,280,2013-03-06 23:35:00
6:55 PM,32.0,30.2,93,30.24,3.0,West,6.9,-,N/A,Snow,Light Snow,280,2013-03-06 23:55:00
7:15 PM,32.0,30.2,93,30.25,4.0,West,9.2,-,N/A,Snow,Light Snow,270,2013-03-07 00:15:00
7:35 PM,30.2,30.2,100,30.25,5.0,West,10.4,-,N/A,,Overcast,280,2013-03-07 00:35:00
7:55 PM,30.2,30.2,100,30.25,5.0,West,8.1,-,N/A,,Overcast,280,2013-03-07 00:55:00
8:15 PM,30.2,28.4,93,30.26,4.0,West,8.1,-,N/A,Snow,Light Snow,280,2013-03-07 01:15:00
8:35 PM,30.2,28.4,93,30.26,5.0,West,8.1,-,N/A,,Overcast,280,2013-03-07 01:35:00
8:55 PM,30.2,28.4,93,30.27,5.0,WNW,8.1,-,N/A,,Overcast,290,2013-03-07 01:55:00
9:15 PM,30.2,28.4,93,30.27,5.0,West,9.2,-,N/A,,Overcast,280,2013-03-07 02:15:00
9:35 PM,32.0,28.4,87,30.26,7.0,WNW,6.9,-,N/A,,Overcast,300,2013-03-07 02:35:00
9:55 PM,32.0,28.4,87,30.26,7.0,WNW,6.9,-,N/A,,Overcast,300,2013-03-07 02:55:00
10:15 PM,30.2,28.4,93,30.27,3.0,WNW,5.8,-,N/A,Snow,Light Snow,300,2013-03-07 03:15:00
10:35 PM,30.2,28.4,93,30.26,5.0,WNW,5.8,-,N/A,,Overcast,300,2013-03-07 03:35:00
10:55 PM,30.2,28.4,93,30.26,7.0,WNW,5.8,-,N/A,,Overcast,300,2013-03-07 03:55:00
11:15 PM,30.2,28.4,93,30.27,7.0,WNW,6.9,-,N/A,,Overcast,300,2013-03-07 04:15:00
11:35 PM,30.2,28.4,93,30.27,7.0,WNW,5.8,-,N/A,,Overcast,300,2013-03-07 04:35:00
11:55 PM,30.2,28.4,93,30.27,5.0,WNW,5.8,-,N/A,,Overcast,300,2013-03-07 04:55:00